sensor_id;sensor_type;location;lat;lon;timestamp;P1;durP1;ratioP1;P2;durP2;ratioP2
27219;SDS011;45274;52.266;10.790;2023-12-04T00:00:04;27.10;;;14.00;;
27219;SDS011;45274;52.266;10.790;2023-12-04T00:02:29;26.23;;;13.30;;
27219;SDS011;45274;52.266;10.790;2023-12-04T00:04:55;27.45;;;13.45;;
27219;SDS011;45274;52.266;10.790;2023-12-04T00:07:20;26.15;;;14.40;;
27219;SDS011;45274;52.266;10.790;2023-12-04T00:09:45;26.60;;;13.88;;
27219;SDS011;45274;52.266;10.790;2023-12-04T00:12:10;26.17;;;13.38;;
27219;SDS011;45274;52.266;10.790;2023-12-04T00:14:36;23.48;;;12.63;;
27219;SDS011;45274;52.266;10.790;2023-12-04T00:17:01;27.13;;;13.70;;
27219;SDS011;45274;52.266;10.790;2023-12-04T00:19:26;26.52;;;13.75;;
27219;SDS011;45274;52.266;10.790;2023-12-04T00:21:54;23.60;;;12.48;;
27219;SDS011;45274;52.266;10.790;2023-12-04T00:24:20;23.55;;;12.57;;
27219;SDS011;45274;52.266;10.790;2023-12-04T00:26:45;24.10;;;12.27;;
27219;SDS011;45274;52.266;10.790;2023-12-04T00:29:10;24.80;;;12.15;;
27219;SDS011;45274;52.266;10.790;2023-12-04T00:31:36;23.60;;;12.75;;
27219;SDS011;45274;52.266;10.790;2023-12-04T00:34:01;24.58;;;13.15;;
27219;SDS011;45274;52.266;10.790;2023-12-04T00:36:26;22.25;;;12.48;;
27219;SDS011;45274;52.266;10.790;2023-12-04T00:38:52;23.77;;;12.07;;
27219;SDS011;45274;52.266;10.790;2023-12-04T00:41:17;25.90;;;12.60;;
27219;SDS011;45274;52.266;10.790;2023-12-04T00:43:42;24.58;;;12.18;;
27219;SDS011;45274;52.266;10.790;2023-12-04T00:46:08;24.05;;;12.60;;
27219;SDS011;45274;52.266;10.790;2023-12-04T00:48:33;24.33;;;12.93;;
27219;SDS011;45274;52.266;10.790;2023-12-04T00:50:59;24.33;;;12.30;;
27219;SDS011;45274;52.266;10.790;2023-12-04T00:53:24;22.10;;;11.80;;
27219;SDS011;45274;52.266;10.790;2023-12-04T00:55:49;22.73;;;12.85;;
27219;SDS011;45274;52.266;10.790;2023-12-04T00:58:14;19.02;;;9.82;;
27219;SDS011;45274;52.266;10.790;2023-12-04T01:00:40;16.58;;;8.80;;
27219;SDS011;45274;52.266;10.790;2023-12-04T01:03:05;21.80;;;11.23;;
27219;SDS011;45274;52.266;10.790;2023-12-04T01:05:30;19.85;;;10.38;;
27219;SDS011;45274;52.266;10.790;2023-12-04T01:07:55;19.02;;;9.15;;
27219;SDS011;45274;52.266;10.790;2023-12-04T01:10:20;17.65;;;8.77;;
27219;SDS011;45274;52.266;10.790;2023-12-04T01:12:46;16.02;;;8.30;;
27219;SDS011;45274;52.266;10.790;2023-12-04T01:15:11;16.80;;;8.55;;
27219;SDS011;45274;52.266;10.790;2023-12-04T01:17:36;19.15;;;9.95;;
27219;SDS011;45274;52.266;10.790;2023-12-04T01:20:02;17.88;;;9.93;;
27219;SDS011;45274;52.266;10.790;2023-12-04T01:22:27;20.15;;;10.27;;
27219;SDS011;45274;52.266;10.790;2023-12-04T01:24:52;20.38;;;10.13;;
27219;SDS011;45274;52.266;10.790;2023-12-04T01:27:17;20.75;;;10.88;;
27219;SDS011;45274;52.266;10.790;2023-12-04T01:29:43;21.35;;;11.45;;
27219;SDS011;45274;52.266;10.790;2023-12-04T01:32:08;19.23;;;10.80;;
27219;SDS011;45274;52.266;10.790;2023-12-04T01:34:33;17.75;;;9.60;;
27219;SDS011;45274;52.266;10.790;2023-12-04T01:36:58;18.63;;;10.35;;
27219;SDS011;45274;52.266;10.790;2023-12-04T01:39:24;19.25;;;10.32;;
27219;SDS011;45274;52.266;10.790;2023-12-04T01:41:49;19.00;;;10.65;;
27219;SDS011;45274;52.266;10.790;2023-12-04T01:44:14;17.48;;;9.55;;
27219;SDS011;45274;52.266;10.790;2023-12-04T01:46:43;21.48;;;10.98;;
27219;SDS011;45274;52.266;10.790;2023-12-04T01:49:08;18.75;;;9.90;;
27219;SDS011;45274;52.266;10.790;2023-12-04T01:51:33;21.30;;;11.07;;
27219;SDS011;45274;52.266;10.790;2023-12-04T01:54:00;20.77;;;11.10;;
27219;SDS011;45274;52.266;10.790;2023-12-04T01:56:25;19.42;;;10.65;;
27219;SDS011;45274;52.266;10.790;2023-12-04T01:58:50;20.50;;;10.93;;
27219;SDS011;45274;52.266;10.790;2023-12-04T02:01:16;23.05;;;10.93;;
27219;SDS011;45274;52.266;10.790;2023-12-04T02:03:42;22.63;;;10.93;;
27219;SDS011;45274;52.266;10.790;2023-12-04T02:06:08;22.17;;;12.30;;
27219;SDS011;45274;52.266;10.790;2023-12-04T02:08:34;24.02;;;12.27;;
27219;SDS011;45274;52.266;10.790;2023-12-04T02:11:00;20.73;;;11.20;;
27219;SDS011;45274;52.266;10.790;2023-12-04T02:13:25;21.70;;;11.13;;
27219;SDS011;45274;52.266;10.790;2023-12-04T02:15:51;22.38;;;12.68;;
27219;SDS011;45274;52.266;10.790;2023-12-04T02:18:18;24.55;;;11.45;;
27219;SDS011;45274;52.266;10.790;2023-12-04T02:20:43;22.63;;;12.05;;
27219;SDS011;45274;52.266;10.790;2023-12-04T02:23:09;19.05;;;10.82;;
27219;SDS011;45274;52.266;10.790;2023-12-04T02:25:34;24.42;;;12.25;;
27219;SDS011;45274;52.266;10.790;2023-12-04T02:28:00;21.70;;;12.02;;
27219;SDS011;45274;52.266;10.790;2023-12-04T02:30:26;19.20;;;10.75;;
27219;SDS011;45274;52.266;10.790;2023-12-04T02:32:53;21.48;;;11.73;;
27219;SDS011;45274;52.266;10.790;2023-12-04T02:35:20;20.73;;;10.82;;
27219;SDS011;45274;52.266;10.790;2023-12-04T02:37:46;21.15;;;11.40;;
27219;SDS011;45274;52.266;10.790;2023-12-04T02:40:12;20.60;;;11.15;;
27219;SDS011;45274;52.266;10.790;2023-12-04T02:42:38;19.20;;;10.43;;
27219;SDS011;45274;52.266;10.790;2023-12-04T02:45:03;19.15;;;10.57;;
27219;SDS011;45274;52.266;10.790;2023-12-04T02:47:29;17.92;;;9.65;;
27219;SDS011;45274;52.266;10.790;2023-12-04T02:49:54;19.02;;;10.63;;
27219;SDS011;45274;52.266;10.790;2023-12-04T02:52:19;19.88;;;10.77;;
27219;SDS011;45274;52.266;10.790;2023-12-04T02:54:44;25.98;;;11.55;;
27219;SDS011;45274;52.266;10.790;2023-12-04T02:57:13;20.08;;;11.07;;
27219;SDS011;45274;52.266;10.790;2023-12-04T02:59:38;22.02;;;11.27;;
27219;SDS011;45274;52.266;10.790;2023-12-04T03:02:03;20.98;;;11.77;;
27219;SDS011;45274;52.266;10.790;2023-12-04T03:04:29;24.33;;;11.80;;
27219;SDS011;45274;52.266;10.790;2023-12-04T03:06:55;21.05;;;10.93;;
27219;SDS011;45274;52.266;10.790;2023-12-04T03:09:20;24.88;;;12.00;;
27219;SDS011;45274;52.266;10.790;2023-12-04T03:11:45;24.10;;;11.82;;
27219;SDS011;45274;52.266;10.790;2023-12-04T03:14:10;19.67;;;11.95;;
27219;SDS011;45274;52.266;10.790;2023-12-04T03:16:36;24.55;;;12.55;;
27219;SDS011;45274;52.266;10.790;2023-12-04T03:19:01;20.88;;;10.63;;
27219;SDS011;45274;52.266;10.790;2023-12-04T03:21:26;18.23;;;10.55;;
27219;SDS011;45274;52.266;10.790;2023-12-04T03:23:53;21.27;;;11.43;;
27219;SDS011;45274;52.266;10.790;2023-12-04T03:26:19;19.80;;;11.38;;
27219;SDS011;45274;52.266;10.790;2023-12-04T03:28:44;20.83;;;11.50;;
27219;SDS011;45274;52.266;10.790;2023-12-04T03:31:09;25.75;;;12.82;;
27219;SDS011;45274;52.266;10.790;2023-12-04T03:33:34;22.83;;;12.10;;
27219;SDS011;45274;52.266;10.790;2023-12-04T03:36:00;21.90;;;11.40;;
27219;SDS011;45274;52.266;10.790;2023-12-04T03:38:25;23.85;;;12.02;;
27219;SDS011;45274;52.266;10.790;2023-12-04T03:40:50;21.85;;;11.73;;
27219;SDS011;45274;52.266;10.790;2023-12-04T03:43:15;19.63;;;11.20;;
27219;SDS011;45274;52.266;10.790;2023-12-04T03:45:41;22.25;;;11.10;;
27219;SDS011;45274;52.266;10.790;2023-12-04T03:48:06;16.73;;;9.95;;
27219;SDS011;45274;52.266;10.790;2023-12-04T03:50:31;22.02;;;11.30;;
27219;SDS011;45274;52.266;10.790;2023-12-04T03:52:56;19.08;;;11.45;;
27219;SDS011;45274;52.266;10.790;2023-12-04T03:55:22;22.05;;;11.40;;
27219;SDS011;45274;52.266;10.790;2023-12-04T03:57:47;19.55;;;10.70;;
27219;SDS011;45274;52.266;10.790;2023-12-04T04:00:12;18.30;;;10.82;;
27219;SDS011;45274;52.266;10.790;2023-12-04T04:02:39;18.08;;;10.27;;
27219;SDS011;45274;52.266;10.790;2023-12-04T04:05:04;19.63;;;11.10;;
27219;SDS011;45274;52.266;10.790;2023-12-04T04:07:32;18.15;;;9.90;;
27219;SDS011;45274;52.266;10.790;2023-12-04T04:09:57;19.13;;;10.68;;
27219;SDS011;45274;52.266;10.790;2023-12-04T04:12:22;18.27;;;10.13;;
27219;SDS011;45274;52.266;10.790;2023-12-04T04:14:48;19.33;;;9.77;;
27219;SDS011;45274;52.266;10.790;2023-12-04T04:17:13;20.60;;;9.43;;
27219;SDS011;45274;52.266;10.790;2023-12-04T04:19:38;16.52;;;9.43;;
27219;SDS011;45274;52.266;10.790;2023-12-04T04:22:04;17.38;;;9.48;;
27219;SDS011;45274;52.266;10.790;2023-12-04T04:24:29;17.15;;;9.77;;
27219;SDS011;45274;52.266;10.790;2023-12-04T04:26:54;18.98;;;9.98;;
27219;SDS011;45274;52.266;10.790;2023-12-04T04:29:19;17.20;;;9.52;;
27219;SDS011;45274;52.266;10.790;2023-12-04T04:31:45;16.70;;;10.02;;
27219;SDS011;45274;52.266;10.790;2023-12-04T04:34:10;17.52;;;10.13;;
27219;SDS011;45274;52.266;10.790;2023-12-04T04:36:35;19.30;;;10.18;;
27219;SDS011;45274;52.266;10.790;2023-12-04T04:39:00;18.23;;;9.75;;
27219;SDS011;45274;52.266;10.790;2023-12-04T04:41:26;17.15;;;9.23;;
27219;SDS011;45274;52.266;10.790;2023-12-04T04:43:51;17.27;;;9.30;;
27219;SDS011;45274;52.266;10.790;2023-12-04T04:46:16;17.92;;;9.20;;
27219;SDS011;45274;52.266;10.790;2023-12-04T04:48:41;17.60;;;10.07;;
27219;SDS011;45274;52.266;10.790;2023-12-04T04:51:07;19.30;;;10.38;;
27219;SDS011;45274;52.266;10.790;2023-12-04T04:53:32;17.58;;;10.13;;
27219;SDS011;45274;52.266;10.790;2023-12-04T04:55:57;15.48;;;9.30;;
27219;SDS011;45274;52.266;10.790;2023-12-04T04:58:22;16.73;;;9.63;;
27219;SDS011;45274;52.266;10.790;2023-12-04T05:00:48;17.05;;;9.45;;
27219;SDS011;45274;52.266;10.790;2023-12-04T05:03:13;20.25;;;9.90;;
27219;SDS011;45274;52.266;10.790;2023-12-04T05:05:38;19.92;;;10.40;;
27219;SDS011;45274;52.266;10.790;2023-12-04T05:08:04;16.17;;;9.38;;
27219;SDS011;45274;52.266;10.790;2023-12-04T05:10:29;15.75;;;9.00;;
27219;SDS011;45274;52.266;10.790;2023-12-04T05:12:54;16.90;;;10.35;;
27219;SDS011;45274;52.266;10.790;2023-12-04T05:15:19;16.95;;;9.48;;
27219;SDS011;45274;52.266;10.790;2023-12-04T05:17:45;18.13;;;9.70;;
27219;SDS011;45274;52.266;10.790;2023-12-04T05:20:10;17.23;;;9.98;;
27219;SDS011;45274;52.266;10.790;2023-12-04T05:22:35;19.58;;;10.25;;
27219;SDS011;45274;52.266;10.790;2023-12-04T05:25:01;17.25;;;9.75;;
27219;SDS011;45274;52.266;10.790;2023-12-04T05:27:26;20.67;;;10.52;;
27219;SDS011;45274;52.266;10.790;2023-12-04T05:29:51;17.33;;;10.38;;
27219;SDS011;45274;52.266;10.790;2023-12-04T05:32:17;15.70;;;8.65;;
27219;SDS011;45274;52.266;10.790;2023-12-04T05:34:42;15.40;;;9.10;;
27219;SDS011;45274;52.266;10.790;2023-12-04T05:37:07;15.43;;;9.00;;
27219;SDS011;45274;52.266;10.790;2023-12-04T05:39:33;18.08;;;10.07;;
27219;SDS011;45274;52.266;10.790;2023-12-04T05:41:58;16.83;;;8.73;;
27219;SDS011;45274;52.266;10.790;2023-12-04T05:44:23;18.55;;;9.93;;
27219;SDS011;45274;52.266;10.790;2023-12-04T05:46:48;17.40;;;9.65;;
27219;SDS011;45274;52.266;10.790;2023-12-04T05:49:13;14.27;;;8.00;;
27219;SDS011;45274;52.266;10.790;2023-12-04T05:51:39;17.98;;;9.70;;
27219;SDS011;45274;52.266;10.790;2023-12-04T05:54:04;16.35;;;8.88;;
27219;SDS011;45274;52.266;10.790;2023-12-04T05:56:29;15.35;;;8.80;;
27219;SDS011;45274;52.266;10.790;2023-12-04T05:58:55;15.63;;;8.65;;
27219;SDS011;45274;52.266;10.790;2023-12-04T06:01:21;14.88;;;8.73;;
27219;SDS011;45274;52.266;10.790;2023-12-04T06:03:46;15.50;;;8.77;;
27219;SDS011;45274;52.266;10.790;2023-12-04T06:06:11;13.45;;;8.10;;
27219;SDS011;45274;52.266;10.790;2023-12-04T06:08:36;14.40;;;8.60;;
27219;SDS011;45274;52.266;10.790;2023-12-04T06:11:02;16.77;;;9.20;;
27219;SDS011;45274;52.266;10.790;2023-12-04T06:13:27;12.45;;;7.80;;
27219;SDS011;45274;52.266;10.790;2023-12-04T06:15:52;18.05;;;9.00;;
27219;SDS011;45274;52.266;10.790;2023-12-04T06:18:17;16.23;;;9.38;;
27219;SDS011;45274;52.266;10.790;2023-12-04T06:20:43;14.38;;;8.70;;
27219;SDS011;45274;52.266;10.790;2023-12-04T06:23:08;13.80;;;7.28;;
27219;SDS011;45274;52.266;10.790;2023-12-04T06:25:33;15.43;;;8.40;;
27219;SDS011;45274;52.266;10.790;2023-12-04T06:27:59;14.23;;;8.57;;
27219;SDS011;45274;52.266;10.790;2023-12-04T06:30:25;12.45;;;7.25;;
27219;SDS011;45274;52.266;10.790;2023-12-04T06:32:50;16.58;;;10.27;;
27219;SDS011;45274;52.266;10.790;2023-12-04T06:35:15;14.27;;;8.55;;
27219;SDS011;45274;52.266;10.790;2023-12-04T06:37:41;14.23;;;8.05;;
27219;SDS011;45274;52.266;10.790;2023-12-04T06:40:06;15.93;;;8.20;;
27219;SDS011;45274;52.266;10.790;2023-12-04T06:42:34;14.43;;;8.40;;
27219;SDS011;45274;52.266;10.790;2023-12-04T06:44:59;15.02;;;8.60;;
27219;SDS011;45274;52.266;10.790;2023-12-04T06:47:25;15.93;;;8.48;;
27219;SDS011;45274;52.266;10.790;2023-12-04T06:49:50;13.85;;;8.48;;
27219;SDS011;45274;52.266;10.790;2023-12-04T06:52:15;12.32;;;7.72;;
27219;SDS011;45274;52.266;10.790;2023-12-04T06:54:40;17.88;;;10.15;;
27219;SDS011;45274;52.266;10.790;2023-12-04T06:57:06;15.93;;;8.63;;
27219;SDS011;45274;52.266;10.790;2023-12-04T06:59:31;14.68;;;9.15;;
27219;SDS011;45274;52.266;10.790;2023-12-04T07:01:56;16.33;;;8.77;;
27219;SDS011;45274;52.266;10.790;2023-12-04T07:04:25;15.43;;;8.52;;
27219;SDS011;45274;52.266;10.790;2023-12-04T07:06:50;14.63;;;9.00;;
27219;SDS011;45274;52.266;10.790;2023-12-04T07:09:15;16.10;;;9.40;;
27219;SDS011;45274;52.266;10.790;2023-12-04T07:11:44;13.07;;;7.40;;
27219;SDS011;45274;52.266;10.790;2023-12-04T07:14:09;15.50;;;9.15;;
27219;SDS011;45274;52.266;10.790;2023-12-04T07:16:41;13.18;;;7.97;;
27219;SDS011;45274;52.266;10.790;2023-12-04T07:19:07;13.65;;;8.00;;
27219;SDS011;45274;52.266;10.790;2023-12-04T07:21:32;16.25;;;8.77;;
27219;SDS011;45274;52.266;10.790;2023-12-04T07:23:57;15.15;;;8.63;;
27219;SDS011;45274;52.266;10.790;2023-12-04T07:26:22;15.20;;;9.18;;
27219;SDS011;45274;52.266;10.790;2023-12-04T07:28:47;16.42;;;9.35;;
27219;SDS011;45274;52.266;10.790;2023-12-04T07:31:13;16.80;;;9.15;;
27219;SDS011;45274;52.266;10.790;2023-12-04T07:33:38;18.08;;;10.40;;
27219;SDS011;45274;52.266;10.790;2023-12-04T07:36:03;17.80;;;10.13;;
27219;SDS011;45274;52.266;10.790;2023-12-04T07:38:29;17.50;;;9.73;;
27219;SDS011;45274;52.266;10.790;2023-12-04T07:40:54;16.05;;;8.95;;
27219;SDS011;45274;52.266;10.790;2023-12-04T07:43:19;16.50;;;9.73;;
27219;SDS011;45274;52.266;10.790;2023-12-04T07:45:44;16.42;;;9.90;;
27219;SDS011;45274;52.266;10.790;2023-12-04T07:48:10;18.02;;;10.63;;
27219;SDS011;45274;52.266;10.790;2023-12-04T07:50:35;15.70;;;9.52;;
27219;SDS011;45274;52.266;10.790;2023-12-04T07:53:02;17.30;;;10.20;;
27219;SDS011;45274;52.266;10.790;2023-12-04T07:55:28;20.60;;;11.45;;
27219;SDS011;45274;52.266;10.790;2023-12-04T07:58:03;18.13;;;10.27;;
27219;SDS011;45274;52.266;10.790;2023-12-04T08:00:28;17.90;;;10.38;;
27219;SDS011;45274;52.266;10.790;2023-12-04T08:02:53;18.85;;;10.73;;
27219;SDS011;45274;52.266;10.790;2023-12-04T08:05:19;19.58;;;10.77;;
27219;SDS011;45274;52.266;10.790;2023-12-04T08:07:44;19.27;;;10.30;;
27219;SDS011;45274;52.266;10.790;2023-12-04T08:10:10;23.13;;;10.45;;
27219;SDS011;45274;52.266;10.790;2023-12-04T08:12:35;19.95;;;10.38;;
27219;SDS011;45274;52.266;10.790;2023-12-04T08:15:00;18.15;;;10.15;;
27219;SDS011;45274;52.266;10.790;2023-12-04T08:17:26;20.80;;;10.77;;
27219;SDS011;45274;52.266;10.790;2023-12-04T08:19:52;15.77;;;9.73;;
27219;SDS011;45274;52.266;10.790;2023-12-04T08:22:17;17.55;;;10.50;;
27219;SDS011;45274;52.266;10.790;2023-12-04T08:24:42;17.10;;;9.70;;
27219;SDS011;45274;52.266;10.790;2023-12-04T08:27:07;18.35;;;10.15;;
27219;SDS011;45274;52.266;10.790;2023-12-04T08:29:33;19.00;;;10.50;;
27219;SDS011;45274;52.266;10.790;2023-12-04T08:31:58;33.33;;;18.60;;
27219;SDS011;45274;52.266;10.790;2023-12-04T08:34:23;16.30;;;10.23;;
27219;SDS011;45274;52.266;10.790;2023-12-04T08:36:48;18.60;;;10.55;;
27219;SDS011;45274;52.266;10.790;2023-12-04T08:39:14;18.35;;;10.32;;
27219;SDS011;45274;52.266;10.790;2023-12-04T08:41:39;18.00;;;10.18;;
27219;SDS011;45274;52.266;10.790;2023-12-04T08:44:04;18.80;;;10.60;;
27219;SDS011;45274;52.266;10.790;2023-12-04T08:46:29;19.13;;;10.45;;
27219;SDS011;45274;52.266;10.790;2023-12-04T08:48:55;20.38;;;10.48;;
27219;SDS011;45274;52.266;10.790;2023-12-04T08:51:20;18.35;;;11.02;;
27219;SDS011;45274;52.266;10.790;2023-12-04T08:53:45;15.10;;;9.02;;
27219;SDS011;45274;52.266;10.790;2023-12-04T08:56:10;20.23;;;11.77;;
27219;SDS011;45274;52.266;10.790;2023-12-04T08:58:36;19.42;;;10.73;;
27219;SDS011;45274;52.266;10.790;2023-12-04T09:01:01;16.48;;;10.35;;
27219;SDS011;45274;52.266;10.790;2023-12-04T09:03:26;20.20;;;10.27;;
27219;SDS011;45274;52.266;10.790;2023-12-04T09:05:52;20.70;;;10.90;;
27219;SDS011;45274;52.266;10.790;2023-12-04T09:08:17;17.20;;;9.43;;
27219;SDS011;45274;52.266;10.790;2023-12-04T09:10:43;19.00;;;10.68;;
27219;SDS011;45274;52.266;10.790;2023-12-04T09:13:09;18.17;;;10.10;;
27219;SDS011;45274;52.266;10.790;2023-12-04T09:15:34;20.02;;;11.05;;
27219;SDS011;45274;52.266;10.790;2023-12-04T09:18:00;18.08;;;9.90;;
27219;SDS011;45274;52.266;10.790;2023-12-04T09:20:25;17.15;;;10.30;;
27219;SDS011;45274;52.266;10.790;2023-12-04T09:22:50;17.92;;;10.40;;
27219;SDS011;45274;52.266;10.790;2023-12-04T09:25:16;18.52;;;10.43;;
27219;SDS011;45274;52.266;10.790;2023-12-04T09:27:41;18.55;;;10.40;;
27219;SDS011;45274;52.266;10.790;2023-12-04T09:30:06;18.77;;;11.18;;
27219;SDS011;45274;52.266;10.790;2023-12-04T09:32:32;17.90;;;10.30;;
27219;SDS011;45274;52.266;10.790;2023-12-04T09:34:57;15.52;;;9.23;;
27219;SDS011;45274;52.266;10.790;2023-12-04T09:37:22;18.10;;;10.15;;
27219;SDS011;45274;52.266;10.790;2023-12-04T09:39:47;15.20;;;9.10;;
27219;SDS011;45274;52.266;10.790;2023-12-04T09:42:14;17.42;;;10.07;;
27219;SDS011;45274;52.266;10.790;2023-12-04T09:44:40;19.30;;;10.35;;
27219;SDS011;45274;52.266;10.790;2023-12-04T09:47:06;18.02;;;11.05;;
27219;SDS011;45274;52.266;10.790;2023-12-04T09:49:32;18.02;;;10.50;;
27219;SDS011;45274;52.266;10.790;2023-12-04T09:51:57;17.88;;;10.05;;
27219;SDS011;45274;52.266;10.790;2023-12-04T09:54:23;16.50;;;9.90;;
27219;SDS011;45274;52.266;10.790;2023-12-04T09:56:49;18.10;;;10.93;;
27219;SDS011;45274;52.266;10.790;2023-12-04T09:59:14;17.27;;;10.35;;
27219;SDS011;45274;52.266;10.790;2023-12-04T10:01:40;20.05;;;10.43;;
27219;SDS011;45274;52.266;10.790;2023-12-04T10:04:06;17.48;;;10.45;;
27219;SDS011;45274;52.266;10.790;2023-12-04T10:06:31;16.90;;;10.27;;
27219;SDS011;45274;52.266;10.790;2023-12-04T10:08:56;21.13;;;11.82;;
27219;SDS011;45274;52.266;10.790;2023-12-04T10:11:25;18.08;;;9.77;;
27219;SDS011;45274;52.266;10.790;2023-12-04T10:13:51;19.55;;;11.20;;
27219;SDS011;45274;52.266;10.790;2023-12-04T10:16:32;16.45;;;10.23;;
27219;SDS011;45274;52.266;10.790;2023-12-04T10:19:13;17.75;;;9.93;;
27219;SDS011;45274;52.266;10.790;2023-12-04T10:21:39;19.63;;;10.80;;
27219;SDS011;45274;52.266;10.790;2023-12-04T10:24:04;17.50;;;9.27;;
27219;SDS011;45274;52.266;10.790;2023-12-04T10:26:29;15.05;;;10.05;;
27219;SDS011;45274;52.266;10.790;2023-12-04T10:28:58;17.80;;;10.07;;
27219;SDS011;45274;52.266;10.790;2023-12-04T10:31:25;17.02;;;9.57;;
27219;SDS011;45274;52.266;10.790;2023-12-04T10:33:50;19.42;;;10.05;;
27219;SDS011;45274;52.266;10.790;2023-12-04T10:36:15;18.05;;;10.02;;
27219;SDS011;45274;52.266;10.790;2023-12-04T10:38:40;16.77;;;10.10;;
27219;SDS011;45274;52.266;10.790;2023-12-04T10:41:12;18.33;;;9.98;;
27219;SDS011;45274;52.266;10.790;2023-12-04T10:43:38;18.83;;;10.80;;
27219;SDS011;45274;52.266;10.790;2023-12-04T10:46:11;16.83;;;10.32;;
27219;SDS011;45274;52.266;10.790;2023-12-04T10:48:37;17.40;;;10.63;;
27219;SDS011;45274;52.266;10.790;2023-12-04T10:51:03;17.90;;;11.00;;
27219;SDS011;45274;52.266;10.790;2023-12-04T10:53:30;14.57;;;8.65;;
27219;SDS011;45274;52.266;10.790;2023-12-04T10:55:55;15.95;;;9.13;;
27219;SDS011;45274;52.266;10.790;2023-12-04T10:58:21;15.70;;;9.75;;
27219;SDS011;45274;52.266;10.790;2023-12-04T11:00:51;16.45;;;9.80;;
27219;SDS011;45274;52.266;10.790;2023-12-04T11:03:31;16.27;;;9.52;;
27219;SDS011;45274;52.266;10.790;2023-12-04T11:05:59;17.63;;;10.38;;
27219;SDS011;45274;52.266;10.790;2023-12-04T11:08:24;18.98;;;9.57;;
27219;SDS011;45274;52.266;10.790;2023-12-04T11:13:29;14.27;;;8.73;;
27219;SDS011;45274;52.266;10.790;2023-12-04T11:15:56;13.63;;;9.18;;
27219;SDS011;45274;52.266;10.790;2023-12-04T11:18:23;15.57;;;8.90;;
27219;SDS011;45274;52.266;10.790;2023-12-04T11:20:54;14.25;;;8.48;;
27219;SDS011;45274;52.266;10.790;2023-12-04T11:23:21;10.05;;;6.03;;
27219;SDS011;45274;52.266;10.790;2023-12-04T11:25:47;14.65;;;8.50;;
27219;SDS011;45274;52.266;10.790;2023-12-04T11:28:12;16.42;;;9.18;;
27219;SDS011;45274;52.266;10.790;2023-12-04T11:30:38;12.82;;;8.23;;
27219;SDS011;45274;52.266;10.790;2023-12-04T11:33:04;16.33;;;9.23;;
27219;SDS011;45274;52.266;10.790;2023-12-04T11:35:29;13.88;;;8.55;;
27219;SDS011;45274;52.266;10.790;2023-12-04T11:37:55;16.10;;;10.52;;
27219;SDS011;45274;52.266;10.790;2023-12-04T11:40:22;14.38;;;8.75;;
27219;SDS011;45274;52.266;10.790;2023-12-04T11:42:47;13.93;;;8.60;;
27219;SDS011;45274;52.266;10.790;2023-12-04T11:45:19;14.13;;;8.80;;
27219;SDS011;45274;52.266;10.790;2023-12-04T11:50:16;13.85;;;8.20;;
27219;SDS011;45274;52.266;10.790;2023-12-04T11:52:41;12.65;;;8.15;;
27219;SDS011;45274;52.266;10.790;2023-12-04T11:55:07;13.07;;;8.15;;
27219;SDS011;45274;52.266;10.790;2023-12-04T11:57:36;13.45;;;8.45;;
27219;SDS011;45274;52.266;10.790;2023-12-04T12:00:12;13.88;;;8.50;;
27219;SDS011;45274;52.266;10.790;2023-12-04T12:02:46;12.45;;;8.05;;
27219;SDS011;45274;52.266;10.790;2023-12-04T12:05:12;13.10;;;8.10;;
27219;SDS011;45274;52.266;10.790;2023-12-04T12:07:37;14.00;;;7.95;;
27219;SDS011;45274;52.266;10.790;2023-12-04T12:10:03;12.60;;;8.02;;
27219;SDS011;45274;52.266;10.790;2023-12-04T12:12:28;12.63;;;8.00;;
27219;SDS011;45274;52.266;10.790;2023-12-04T12:14:55;14.40;;;8.30;;
27219;SDS011;45274;52.266;10.790;2023-12-04T12:17:20;12.68;;;7.95;;
27219;SDS011;45274;52.266;10.790;2023-12-04T12:19:46;12.02;;;7.50;;
27219;SDS011;45274;52.266;10.790;2023-12-04T12:22:11;10.38;;;6.60;;
27219;SDS011;45274;52.266;10.790;2023-12-04T12:24:36;11.48;;;7.10;;
27219;SDS011;45274;52.266;10.790;2023-12-04T12:27:04;10.80;;;7.15;;
27219;SDS011;45274;52.266;10.790;2023-12-04T12:29:29;11.82;;;7.07;;
27219;SDS011;45274;52.266;10.790;2023-12-04T12:31:54;14.00;;;7.07;;
27219;SDS011;45274;52.266;10.790;2023-12-04T12:34:20;13.95;;;7.65;;
27219;SDS011;45274;52.266;10.790;2023-12-04T12:36:45;11.48;;;7.13;;
27219;SDS011;45274;52.266;10.790;2023-12-04T12:39:11;12.90;;;7.85;;
27219;SDS011;45274;52.266;10.790;2023-12-04T12:41:37;13.35;;;7.63;;
27219;SDS011;45274;52.266;10.790;2023-12-04T12:44:03;11.90;;;7.70;;
27219;SDS011;45274;52.266;10.790;2023-12-04T12:46:28;12.02;;;7.00;;
27219;SDS011;45274;52.266;10.790;2023-12-04T12:48:54;11.10;;;7.32;;
27219;SDS011;45274;52.266;10.790;2023-12-04T12:51:23;13.70;;;7.75;;
27219;SDS011;45274;52.266;10.790;2023-12-04T12:53:49;12.48;;;7.75;;
27219;SDS011;45274;52.266;10.790;2023-12-04T12:56:14;13.10;;;7.13;;
27219;SDS011;45274;52.266;10.790;2023-12-04T12:58:42;12.15;;;7.70;;
27219;SDS011;45274;52.266;10.790;2023-12-04T13:01:10;16.38;;;7.47;;
27219;SDS011;45274;52.266;10.790;2023-12-04T13:03:36;11.90;;;7.00;;
27219;SDS011;45274;52.266;10.790;2023-12-04T13:06:03;13.02;;;7.82;;
27219;SDS011;45274;52.266;10.790;2023-12-04T13:08:31;13.60;;;7.43;;
27219;SDS011;45274;52.266;10.790;2023-12-04T13:10:56;10.80;;;6.28;;
27219;SDS011;45274;52.266;10.790;2023-12-04T13:13:22;10.52;;;7.00;;
27219;SDS011;45274;52.266;10.790;2023-12-04T13:15:47;12.30;;;7.50;;
27219;SDS011;45274;52.266;10.790;2023-12-04T13:18:12;11.82;;;7.22;;
27219;SDS011;45274;52.266;10.790;2023-12-04T13:20:37;10.38;;;6.75;;
27219;SDS011;45274;52.266;10.790;2023-12-04T13:23:03;12.02;;;7.35;;
27219;SDS011;45274;52.266;10.790;2023-12-04T13:25:28;12.13;;;7.95;;
27219;SDS011;45274;52.266;10.790;2023-12-04T13:27:53;11.20;;;7.38;;
27219;SDS011;45274;52.266;10.790;2023-12-04T13:30:19;13.10;;;8.32;;
27219;SDS011;45274;52.266;10.790;2023-12-04T13:32:44;15.85;;;8.18;;
27219;SDS011;45274;52.266;10.790;2023-12-04T13:35:10;15.32;;;8.10;;
27219;SDS011;45274;52.266;10.790;2023-12-04T13:37:36;12.45;;;6.93;;
27219;SDS011;45274;52.266;10.790;2023-12-04T13:40:03;11.85;;;7.30;;
27219;SDS011;45274;52.266;10.790;2023-12-04T13:42:32;12.52;;;7.68;;
27219;SDS011;45274;52.266;10.790;2023-12-04T13:45:16;12.40;;;7.55;;
27219;SDS011;45274;52.266;10.790;2023-12-04T13:47:41;11.65;;;7.15;;
27219;SDS011;45274;52.266;10.790;2023-12-04T13:50:07;11.25;;;7.45;;
27219;SDS011;45274;52.266;10.790;2023-12-04T13:52:36;11.50;;;6.97;;
27219;SDS011;45274;52.266;10.790;2023-12-04T13:55:02;10.13;;;6.38;;
27219;SDS011;45274;52.266;10.790;2023-12-04T13:57:35;15.63;;;7.68;;
27219;SDS011;45274;52.266;10.790;2023-12-04T14:00:09;10.40;;;6.28;;
27219;SDS011;45274;52.266;10.790;2023-12-04T14:02:34;11.48;;;7.05;;
27219;SDS011;45274;52.266;10.790;2023-12-04T14:05:02;12.48;;;7.75;;
27219;SDS011;45274;52.266;10.790;2023-12-04T14:07:27;9.57;;;6.57;;
27219;SDS011;45274;52.266;10.790;2023-12-04T14:09:53;12.20;;;7.60;;
27219;SDS011;45274;52.266;10.790;2023-12-04T14:12:18;12.68;;;8.13;;